Time;durP1;ratioP1;P1;durP2;ratioP2;P2;SDS_P1;SDS_P2;PMS_P1;PMS_P2;Temp;Humidity;BMP_temperature;BMP_pressure;BME280_temperature;BME280_humidity;BME280_pressure;Samples;Min_cycle;Max_cycle;Signal;HPM_P1;HPM_P2
2020/12/28 00:01:43;;;;;;;7.47;5.90;;;;;;;;;;5089669;28;20063;-57
2020/12/28 00:04:09;;;;;;;8.40;5.67;;;;;;;;;;5090687;28;20104;-55
2020/12/28 00:06:34;;;;;;;7.50;5.43;;;;;;;;;;5089315;28;20020;-56
2020/12/28 00:08:59;;;;;;;8.67;5.90;;;;;;;;;;5088756;28;20077;-54
2020/12/28 00:11:26;;;;;;;6.63;5.10;;;;;;;;;;5091006;28;20235;-54
2020/12/28 00:13:51;;;;;;;7.57;5.20;;;;;;;;;;5091597;28;20020;-57
2020/12/28 00:16:16;;;;;;;7.30;5.80;;;;;;;;;;5092279;28;20348;-57
2020/12/28 00:18:42;;;;;;;6.53;4.77;;;;;;;;;;5089062;28;20066;-57
2020/12/28 00:21:08;;;;;;;8.93;6.07;;;;;;;;;;5091931;28;20016;-54
2020/12/28 00:23:33;;;;;;;7.83;5.53;;;;;;;;;;5091900;28;20051;-57
2020/12/28 00:25:58;;;;;;;8.27;5.83;;;;;;;;;;5088788;28;20027;-55
2020/12/28 00:28:24;;;;;;;9.33;5.23;;;;;;;;;;5089849;28;20264;-57
2020/12/28 00:30:49;;;;;;;8.33;6.27;;;;;;;;;;5092123;28;20020;-55
2020/12/28 00:33:16;;;;;;;8.37;5.93;;;;;;;;;;5091094;28;20012;-56
2020/12/28 00:35:43;;;;;;;8.37;6.57;;;;;;;;;;5089439;28;20554;-56
2020/12/28 00:38:08;;;;;;;7.63;5.43;;;;;;;;;;5090900;28;20062;-54
2020/12/28 00:40:33;;;;;;;8.53;5.77;;;;;;;;;;5089897;28;20035;-55
2020/12/28 00:42:59;;;;;;;8.43;6.20;;;;;;;;;;5092390;28;20069;-56
2020/12/28 00:45:24;;;;;;;7.87;5.90;;;;;;;;;;5090575;28;20111;-57
2020/12/28 00:47:49;;;;;;;7.00;5.07;;;;;;;;;;5091502;28;20381;-55
2020/12/28 00:50:15;;;;;;;8.50;5.53;;;;;;;;;;5089236;28;20012;-56
2020/12/28 00:52:40;;;;;;;9.87;5.87;;;;;;;;;;5103014;28;20043;-56
2020/12/28 00:55:06;;;;;;;7.53;5.70;;;;;;;;;;5091841;28;20026;-55
2020/12/28 00:57:31;;;;;;;8.00;6.30;;;;;;;;;;5091709;28;20024;-58
2020/12/28 00:59:56;;;;;;;8.87;6.30;;;;;;;;;;5089217;28;20020;-56
2020/12/28 01:02:22;;;;;;;9.43;6.37;;;;;;;;;;5090581;28;20028;-55
2020/12/28 01:04:47;;;;;;;8.10;4.47;;;;;;;;;;5091973;28;20486;-55
2020/12/28 01:07:15;;;;;;;8.63;5.37;;;;;;;;;;5088283;28;20051;-54
2020/12/28 01:09:41;;;;;;;7.87;5.73;;;;;;;;;;5089184;28;20012;-55
2020/12/28 01:12:06;;;;;;;7.50;6.70;;;;;;;;;;5095210;28;20497;-56
2020/12/28 01:14:31;;;;;;;7.40;5.37;;;;;;;;;;5095749;28;20048;-56
2020/12/28 01:16:56;;;;;;;9.77;6.13;;;;;;;;;;5095506;28;20015;-55
2020/12/28 01:19:22;;;;;;;8.23;5.73;;;;;;;;;;5092460;28;20519;-54
2020/12/28 01:21:47;;;;;;;9.43;5.57;;;;;;;;;;5096187;28;20023;-56
2020/12/28 01:24:12;;;;;;;8.13;6.97;;;;;;;;;;5093418;28;20059;-55
2020/12/28 01:26:38;;;;;;;7.03;5.17;;;;;;;;;;5091653;28;20103;-56
2020/12/28 01:29:03;;;;;;;7.47;5.23;;;;;;;;;;5090828;28;20020;-55
2020/12/28 01:31:28;;;;;;;9.07;5.73;;;;;;;;;;5095223;28;20054;-57
2020/12/28 01:33:54;;;;;;;7.60;4.70;;;;;;;;;;5095290;28;20016;-57
2020/12/28 01:36:19;;;;;;;7.63;6.00;;;;;;;;;;5092996;28;20047;-55
2020/12/28 01:38:44;;;;;;;7.90;5.23;;;;;;;;;;5091873;28;20445;-55
2020/12/28 01:41:10;;;;;;;8.60;5.47;;;;;;;;;;5095256;28;20074;-55
2020/12/28 01:43:35;;;;;;;8.00;5.50;;;;;;;;;;5093626;28;20035;-56
2020/12/28 01:46:00;;;;;;;7.50;5.67;;;;;;;;;;5093705;28;20020;-56
2020/12/28 01:48:27;;;;;;;7.40;4.60;;;;;;;;;;5090030;28;20502;-56
2020/12/28 01:50:52;;;;;;;6.90;4.97;;;;;;;;;;5074682;28;20020;-57
2020/12/28 01:53:19;;;;;;;6.37;4.50;;;;;;;;;;5089991;28;20016;-51
2020/12/28 01:55:46;;;;;;;6.23;4.80;;;;;;;;;;5094565;28;20012;-56
2020/12/28 01:58:11;;;;;;;6.47;4.50;;;;;;;;;;5093650;28;20048;-56
2020/12/28 02:00:37;;;;;;;6.57;3.90;;;;;;;;;;5092365;28;20067;-56
2020/12/28 02:03:04;;;;;;;5.97;4.10;;;;;;;;;;5094803;28;20015;-57
2020/12/28 02:05:29;;;;;;;6.63;4.33;;;;;;;;;;5094760;28;20012;-57
2020/12/28 02:07:54;;;;;;;7.70;4.83;;;;;;;;;;5077412;28;20021;-56
2020/12/28 02:10:19;;;;;;;6.20;3.83;;;;;;;;;;5085770;28;20091;-55
2020/12/28 02:12:45;;;;;;;7.40;4.40;;;;;;;;;;5080760;28;20100;-58
2020/12/28 02:15:10;;;;;;;7.37;4.17;;;;;;;;;;5074523;28;20024;-53
2020/12/28 02:17:35;;;;;;;5.83;4.13;;;;;;;;;;5074287;28;20082;-56
2020/12/28 02:20:00;;;;;;;7.07;4.10;;;;;;;;;;5074903;28;20023;-56
2020/12/28 02:22:25;;;;;;;8.03;4.47;;;;;;;;;;5093710;28;20030;-52
2020/12/28 02:24:51;;;;;;;7.60;5.30;;;;;;;;;;5094268;28;20079;-57
2020/12/28 02:27:16;;;;;;;11.63;5.53;;;;;;;;;;5092937;28;20073;-54
2020/12/28 02:29:41;;;;;;;6.47;5.10;;;;;;;;;;5086481;28;20459;-52
2020/12/28 02:32:06;;;;;;;6.17;4.80;;;;;;;;;;5094315;28;20417;-54
2020/12/28 02:34:32;;;;;;;5.77;4.53;;;;;;;;;;5094331;28;20019;-56
2020/12/28 02:36:57;;;;;;;7.40;5.47;;;;;;;;;;5094167;28;20012;-54
2020/12/28 02:39:22;;;;;;;7.97;4.90;;;;;;;;;;5090534;28;20012;-56
2020/12/28 02:41:47;;;;;;;8.27;5.07;;;;;;;;;;5093781;28;20024;-57
2020/12/28 02:44:12;;;;;;;5.53;3.47;;;;;;;;;;5093936;28;20034;-55
2020/12/28 02:46:38;;;;;;;7.10;5.17;;;;;;;;;;5093979;28;20043;-56
2020/12/28 02:49:03;;;;;;;7.47;4.87;;;;;;;;;;5090649;28;20179;-57
2020/12/28 02:51:28;;;;;;;7.13;4.63;;;;;;;;;;5093834;28;20012;-57
2020/12/28 02:53:53;;;;;;;6.20;4.53;;;;;;;;;;5093649;28;20378;-55
2020/12/28 02:56:19;;;;;;;7.40;4.60;;;;;;;;;;5093815;28;20484;-55
2020/12/28 02:58:44;;;;;;;6.63;5.00;;;;;;;;;;5090283;28;20028;-54
2020/12/28 03:01:10;;;;;;;5.97;4.57;;;;;;;;;;5093034;28;20501;-53
2020/12/28 03:03:35;;;;;;;5.63;3.97;;;;;;;;;;5093641;28;20024;-53
2020/12/28 03:06:00;;;;;;;6.23;4.30;;;;;;;;;;5093109;28;20020;-52
2020/12/28 03:08:25;;;;;;;6.10;4.30;;;;;;;;;;5090819;28;20081;-57
2020/12/28 03:10:51;;;;;;;5.37;3.63;;;;;;;;;;5092905;28;20065;-53
2020/12/28 03:13:22;;;;;;;6.17;4.10;;;;;;;;;;5092039;28;20027;-55
2020/12/28 03:15:47;;;;;;;5.63;3.70;;;;;;;;;;5091499;28;20536;-56
2020/12/28 03:18:12;;;;;;;6.57;4.37;;;;;;;;;;5082212;28;20028;-57
2020/12/28 03:20:38;;;;;;;6.83;5.23;;;;;;;;;;5071211;28;20440;-54
2020/12/28 03:23:03;;;;;;;5.17;3.80;;;;;;;;;;5088625;28;20447;-57
2020/12/28 03:25:28;;;;;;;5.73;4.07;;;;;;;;;;5093066;28;20089;-53
2020/12/28 03:27:53;;;;;;;5.67;3.90;;;;;;;;;;5093165;28;20081;-56
2020/12/28 03:30:19;;;;;;;5.53;3.90;;;;;;;;;;5090127;28;20379;-54
2020/12/28 03:32:45;;;;;;;6.50;4.90;;;;;;;;;;5092229;28;20065;-55
2020/12/28 03:35:10;;;;;;;5.67;4.67;;;;;;;;;;5092667;28;20054;-53
2020/12/28 03:37:35;;;;;;;5.63;4.17;;;;;;;;;;5093018;28;20017;-56
2020/12/28 03:40:00;;;;;;;5.90;3.77;;;;;;;;;;5090457;28;20027;-55
2020/12/28 03:42:26;;;;;;;6.90;3.73;;;;;;;;;;5092562;28;20099;-54
2020/12/28 03:44:51;;;;;;;5.70;3.97;;;;;;;;;;5092894;28;20019;-57
2020/12/28 03:47:16;;;;;;;6.57;3.93;;;;;;;;;;5091905;28;20016;-56
2020/12/28 03:49:41;;;;;;;6.50;4.43;;;;;;;;;;5089942;28;20020;-55
2020/12/28 03:52:07;;;;;;;6.07;4.40;;;;;;;;;;5092403;28;20017;-56
2020/12/28 03:54:32;;;;;;;5.03;3.87;;;;;;;;;;5092832;28;20428;-56
2020/12/28 03:56:57;;;;;;;5.20;4.00;;;;;;;;;;5092487;28;20430;-54
2020/12/28 03:59:22;;;;;;;6.43;4.03;;;;;;;;;;5089168;28;20114;-55
2020/12/28 04:01:47;;;;;;;6.37;3.93;;;;;;;;;;5092369;28;20031;-56
2020/12/28 04:04:13;;;;;;;6.73;4.43;;;;;;;;;;5092642;28;20478;-56
2020/12/28 04:06:38;;;;;;;6.33;3.77;;;;;;;;;;5092269;28;20459;-54
2020/12/28 04:09:03;;;;;;;5.30;4.00;;;;;;;;;;5089334;28;20028;-55
2020/12/28 04:11:29;;;;;;;7.03;3.77;;;;;;;;;;5092354;28;20020;-55
2020/12/28 04:13:54;;;;;;;5.77;4.20;;;;;;;;;;5092709;28;20016;-55
2020/12/28 04:16:19;;;;;;;5.10;3.70;;;;;;;;;;5087022;28;20024;-56
2020/12/28 04:18:44;;;;;;;4.70;3.53;;;;;;;;;;5069283;28;20094;-54
2020/12/28 04:21:09;;;;;;;5.40;3.60;;;;;;;;;;5080251;28;20036;-55
2020/12/28 04:23:35;;;;;;;5.10;3.03;;;;;;;;;;5092440;28;20063;-55
2020/12/28 04:26:00;;;;;;;6.63;3.70;;;;;;;;;;5092364;28;20509;-56
2020/12/28 04:28:25;;;;;;;5.67;3.70;;;;;;;;;;5089554;28;20439;-55
2020/12/28 04:30:50;;;;;;;6.90;4.60;;;;;;;;;;5092171;28;20009;-54
2020/12/28 04:33:16;;;;;;;7.30;4.37;;;;;;;;;;5092340;28;20081;-56
2020/12/28 04:35:41;;;;;;;7.00;3.63;;;;;;;;;;5092511;28;20383;-55
2020/12/28 04:38:06;;;;;;;6.43;4.03;;;;;;;;;;5091655;28;20032;-57
2020/12/28 04:40:31;;;;;;;5.73;4.07;;;;;;;;;;5089553;28;20024;-56
2020/12/28 04:42:58;;;;;;;6.80;4.20;;;;;;;;;;5091151;28;20016;-57
2020/12/28 04:45:23;;;;;;;5.97;4.30;;;;;;;;;;5095339;28;20028;-58
2020/12/28 04:47:49;;;;;;;5.57;3.67;;;;;;;;;;5095926;28;20036;-54
2020/12/28 04:50:14;;;;;;;5.47;3.93;;;;;;;;;;5093300;28;20382;-54
2020/12/28 04:52:40;;;;;;;6.73;4.20;;;;;;;;;;5095855;28;20024;-52
2020/12/28 04:55:05;;;;;;;4.57;3.27;;;;;;;;;;5096372;28;20020;-57
2020/12/28 04:57:30;;;;;;;5.20;3.37;;;;;;;;;;5095253;28;20027;-54
2020/12/28 04:59:55;;;;;;;4.87;3.40;;;;;;;;;;5093420;28;20024;-54
2020/12/28 05:02:21;;;;;;;5.00;3.23;;;;;;;;;;5095791;28;20070;-56
2020/12/28 05:04:46;;;;;;;5.37;2.70;;;;;;;;;;5096037;28;20023;-57
2020/12/28 05:07:12;;;;;;;4.73;3.20;;;;;;;;;;5091184;28;20012;-55
2020/12/28 05:09:37;;;;;;;6.00;3.67;;;;;;;;;;5072577;28;20031;-55
2020/12/28 05:12:04;;;;;;;3.40;2.43;;;;;;;;;;5087221;28;20099;-54
2020/12/28 05:14:29;;;;;;;4.73;3.23;;;;;;;;;;5095512;28;20477;-58
2020/12/28 05:17:02;;;;;;;5.37;3.00;;;;;;;;;;5090964;28;20012;-56
2020/12/28 05:19:27;;;;;;;4.23;3.00;;;;;;;;;;5089890;28;20470;-54
2020/12/28 05:21:53;;;;;;;5.10;2.50;;;;;;;;;;5094678;28;20072;-56
2020/12/28 05:24:19;;;;;;;6.47;3.37;;;;;;;;;;5095001;28;20150;-57
2020/12/28 05:26:44;;;;;;;4.50;2.90;;;;;;;;;;5095711;28;20490;-54
2020/12/28 05:29:14;;;;;;;5.30;3.30;;;;;;;;;;5092083;28;20024;-57
2020/12/28 05:31:41;;;;;;;4.77;2.90;;;;;;;;;;5094238;28;20027;-56
2020/12/28 05:34:09;;;;;;;4.70;3.23;;;;;;;;;;5095035;28;20015;-58
2020/12/28 05:36:34;;;;;;;4.13;2.80;;;;;;;;;;5095647;28;20016;-51
2020/12/28 05:39:00;;;;;;;4.97;2.60;;;;;;;;;;5091959;28;20020;-56
2020/12/28 05:41:26;;;;;;;4.17;2.57;;;;;;;;;;5091033;28;20430;-55
2020/12/28 05:43:51;;;;;;;4.20;2.40;;;;;;;;;;5078959;28;20095;-56
2020/12/28 05:46:20;;;;;;;3.97;2.63;;;;;;;;;;5093767;28;20114;-56
2020/12/28 05:48:46;;;;;;;4.90;2.50;;;;;;;;;;5086656;28;20019;-55
2020/12/28 05:51:12;;;;;;;4.00;2.47;;;;;;;;;;5089535;28;20425;-55
2020/12/28 05:53:40;;;;;;;4.50;2.93;;;;;;;;;;5094668;28;20023;-55
2020/12/28 05:56:06;;;;;;;3.80;2.40;;;;;;;;;;5094406;28;20378;-58
2020/12/28 05:58:31;;;;;;;3.30;2.33;;;;;;;;;;5091502;28;20096;-56
2020/12/28 06:00:57;;;;;;;4.13;2.57;;;;;;;;;;5093294;28;20050;-55
2020/12/28 06:03:24;;;;;;;3.30;2.33;;;;;;;;;;5086932;28;20026;-56
2020/12/28 06:05:51;;;;;;;3.37;2.20;;;;;;;;;;5095253;28;20443;-55
2020/12/28 06:08:16;;;;;;;4.10;2.27;;;;;;;;;;5091109;28;20364;-54
2020/12/28 06:10:41;;;;;;;4.63;2.47;;;;;;;;;;5093052;28;20023;-54
2020/12/28 06:13:07;;;;;;;4.57;2.60;;;;;;;;;;5094501;28;20031;-55
2020/12/28 06:15:32;;;;;;;4.47;3.23;;;;;;;;;;5094899;28;20020;-56
2020/12/28 06:17:57;;;;;;;4.27;2.80;;;;;;;;;;5093806;28;20027;-57
2020/12/28 06:20:29;;;;;;;4.57;2.90;;;;;;;;;;5091253;28;20020;-57
2020/12/28 06:23:02;;;;;;;4.33;2.47;;;;;;;;;;5094348;28;20012;-54
2020/12/28 06:25:27;;;;;;;4.30;2.87;;;;;;;;;;5091245;28;20044;-57
2020/12/28 06:27:52;;;;;;;3.77;2.80;;;;;;;;;;5087691;28;20030;-57
2020/12/28 06:30:21;;;;;;;3.57;2.13;;;;;;;;;;5084444;28;20348;-56
2020/12/28 06:32:52;;;;;;;2.63;1.87;;;;;;;;;;5093938;28;20020;-53
2020/12/28 06:35:17;;;;;;;4.97;2.00;;;;;;;;;;5093737;28;20019;-56
2020/12/28 06:37:44;;;;;;;4.70;2.90;;;;;;;;;;5093722;28;20040;-56
2020/12/28 06:40:11;;;;;;;4.50;2.13;;;;;;;;;;5090672;28;20027;-56
2020/12/28 06:42:36;;;;;;;4.70;2.00;;;;;;;;;;5091603;28;20020;-56
2020/12/28 06:45:11;;;;;;;3.40;2.30;;;;;;;;;;5077823;28;20012;-58
2020/12/28 06:47:37;;;;;;;3.92;2.50;;;;;;;;;;5093693;28;20367;-56
2020/12/28 06:50:02;;;;;;;4.10;2.67;;;;;;;;;;5090671;28;20045;-55
2020/12/28 06:52:27;;;;;;;4.47;2.43;;;;;;;;;;5093441;28;20065;-57
2020/12/28 06:54:53;;;;;;;4.13;2.50;;;;;;;;;;5093382;28;20012;-57
2020/12/28 06:57:22;;;;;;;3.63;1.93;;;;;;;;;;5093341;28;20019;-57
2020/12/28 06:59:49;;;;;;;3.87;2.23;;;;;;;;;;5090209;28;20423;-56
2020/12/28 07:02:15;;;;;;;3.50;2.30;;;;;;;;;;5084862;28;20027;-56
2020/12/28 07:04:40;;;;;;;3.33;2.23;;;;;;;;;;5093604;28;20024;-55
2020/12/28 07:07:06;;;;;;;3.93;2.47;;;;;;;;;;5092624;28;20482;-57
2020/12/28 07:09:31;;;;;;;3.20;2.10;;;;;;;;;;5087552;28;20489;-55
2020/12/28 07:12:09;;;;;;;5.17;3.03;;;;;;;;;;5093470;28;20017;-56
2020/12/28 07:14:35;;;;;;;4.10;2.60;;;;;;;;;;5092171;28;20016;-56
2020/12/28 07:17:00;;;;;;;5.20;3.40;;;;;;;;;;5092932;28;20016;-57
2020/12/28 07:19:25;;;;;;;4.47;3.20;;;;;;;;;;5089782;28;20023;-57
2020/12/28 07:21:51;;;;;;;5.77;3.03;;;;;;;;;;5092793;28;20478;-57
2020/12/28 07:24:16;;;;;;;6.10;3.07;;;;;;;;;;5092700;28;20533;-52
2020/12/28 07:26:42;;;;;;;4.83;3.27;;;;;;;;;;5090924;28;20069;-55
2020/12/28 07:29:15;;;;;;;6.43;3.53;;;;;;;;;;5089734;28;20033;-54
2020/12/28 07:31:41;;;;;;;5.87;3.07;;;;;;;;;;5092843;28;20009;-56
2020/12/28 07:34:06;;;;;;;6.40;4.67;;;;;;;;;;5081114;28;20020;-57
2020/12/28 07:36:33;;;;;;;4.80;3.20;;;;;;;;;;5082577;28;20016;-57
2020/12/28 07:38:58;;;;;;;5.67;3.17;;;;;;;;;;5089851;28;20020;-58
2020/12/28 07:41:24;;;;;;;6.00;3.07;;;;;;;;;;5092725;28;20493;-57
2020/12/28 07:43:50;;;;;;;6.60;3.73;;;;;;;;;;5092360;28;20077;-57
2020/12/28 07:46:24;;;;;;;4.93;3.70;;;;;;;;;;5092283;28;20020;-58
2020/12/28 07:48:52;;;;;;;4.87;3.53;;;;;;;;;;5087106;28;20115;-57
2020/12/28 07:51:18;;;;;;;6.43;3.57;;;;;;;;;;5092961;28;20016;-55
2020/12/28 07:53:47;;;;;;;5.43;3.80;;;;;;;;;;5087582;28;20020;-57
2020/12/28 07:56:31;;;;;;;5.60;4.03;;;;;;;;;;5092017;28;20008;-58
2020/12/28 07:59:06;;;;;;;6.63;4.47;;;;;;;;;;5089276;28;20027;-57
2020/12/28 08:01:34;;;;;;;5.53;4.13;;;;;;;;;;5092925;28;20019;-57
2020/12/28 08:03:59;;;;;;;5.80;4.00;;;;;;;;;;5092109;28;20028;-57
2020/12/28 08:06:25;;;;;;;6.73;5.23;;;;;;;;;;5092518;28;20620;-52
2020/12/28 08:08:58;;;;;;;6.77;4.20;;;;;;;;;;5088941;28;20492;-55
2020/12/28 08:11:26;;;;;;;7.93;4.10;;;;;;;;;;5090316;28;20069;-57
2020/12/28 08:13:51;;;;;;;7.53;4.20;;;;;;;;;;5084435;28;20031;-55
2020/12/28 08:16:16;;;;;;;7.50;4.40;;;;;;;;;;5084849;28;20024;-57
2020/12/28 08:18:44;;;;;;;6.23;4.37;;;;;;;;;;5088262;28;20019;-57
2020/12/28 08:21:10;;;;;;;8.20;4.70;;;;;;;;;;5091430;28;20031;-56
2020/12/28 08:23:35;;;;;;;5.97;4.03;;;;;;;;;;5091244;28;20032;-57
2020/12/28 08:26:00;;;;;;;7.47;5.33;;;;;;;;;;5091888;28;20027;-55
2020/12/28 08:28:25;;;;;;;7.27;5.33;;;;;;;;;;5089296;28;20514;-58
2020/12/28 08:30:51;;;;;;;8.47;5.27;;;;;;;;;;5091052;28;20016;-57
2020/12/28 08:33:18;;;;;;;7.23;4.50;;;;;;;;;;5085199;28;20435;-57
2020/12/28 08:35:47;;;;;;;8.27;4.77;;;;;;;;;;5088997;28;20035;-57
2020/12/28 08:38:12;;;;;;;7.27;4.70;;;;;;;;;;5090238;28;20520;-55
2020/12/28 08:40:38;;;;;;;7.53;5.10;;;;;;;;;;5089774;28;20024;-56
2020/12/28 08:43:03;;;;;;;7.57;4.97;;;;;;;;;;5090283;28;20144;-58
2020/12/28 08:45:28;;;;;;;7.70;4.67;;;;;;;;;;5091734;28;20423;-57
2020/12/28 08:47:54;;;;;;;6.73;4.43;;;;;;;;;;5091557;28;20031;-56
2020/12/28 08:50:20;;;;;;;7.30;4.57;;;;;;;;;;5087240;28;20098;-56
2020/12/28 08:52:55;;;;;;;7.10;4.43;;;;;;;;;;5088671;28;20032;-57
2020/12/28 08:55:20;;;;;;;6.43;4.45;;;;;;;;;;5095031;28;20070;-56
2020/12/28 08:57:50;;;;;;;7.50;4.57;;;;;;;;;;5099276;28;20055;-56
2020/12/28 09:00:15;;;;;;;7.70;4.80;;;;;;;;;;5089092;28;20508;-58
2020/12/28 09:02:49;;;;;;;7.37;4.77;;;;;;;;;;5097026;28;20016;-57
2020/12/28 09:05:14;;;;;;;7.13;4.77;;;;;;;;;;5097423;28;20015;-57
2020/12/28 09:07:39;;;;;;;9.10;5.93;;;;;;;;;;5087907;28;20029;-58
2020/12/28 09:10:04;;;;;;;7.80;5.00;;;;;;;;;;5087643;28;20046;-57
2020/12/28 09:12:29;;;;;;;7.80;5.60;;;;;;;;;;5090827;28;20091;-57
2020/12/28 09:14:55;;;;;;;8.10;5.63;;;;;;;;;;5091438;28;20020;-56
2020/12/28 09:17:20;;;;;;;6.87;5.13;;;;;;;;;;5090855;28;20034;-55
2020/12/28 09:19:45;;;;;;;9.30;5.13;;;;;;;;;;5088536;28;20024;-53
2020/12/28 09:22:10;;;;;;;9.67;5.73;;;;;;;;;;5090695;28;20463;-56
2020/12/28 09:24:36;;;;;;;7.40;5.00;;;;;;;;;;5091209;28;20036;-57
2020/12/28 09:27:01;;;;;;;7.70;5.60;;;;;;;;;;5091228;28;20024;-55
2020/12/28 09:29:26;;;;;;;6.97;4.70;;;;;;;;;;5087572;28;20065;-57
2020/12/28 09:31:52;;;;;;;8.17;5.03;;;;;;;;;;5093796;28;20022;-58
2020/12/28 09:34:17;;;;;;;9.63;5.60;;;;;;;;;;5094691;28;20032;-57
2020/12/28 09:36:42;;;;;;;8.17;5.57;;;;;;;;;;5094288;28;20042;-57
2020/12/28 09:39:08;;;;;;;7.40;5.20;;;;;;;;;;5091335;28;20024;-55
2020/12/28 09:41:33;;;;;;;8.43;5.03;;;;;;;;;;5095072;28;20016;-56
2020/12/28 09:43:58;;;;;;;8.83;5.13;;;;;;;;;;5094793;28;20020;-54
2020/12/28 09:46:23;;;;;;;7.20;4.93;;;;;;;;;;5092450;28;20441;-51
2020/12/28 09:48:49;;;;;;;8.90;5.60;;;;;;;;;;5091112;28;20028;-53
2020/12/28 09:51:14;;;;;;;9.80;4.67;;;;;;;;;;5094603;28;20511;-53
2020/12/28 09:53:40;;;;;;;5.93;4.63;;;;;;;;;;5090070;28;20039;-56
2020/12/28 09:56:06;;;;;;;6.93;4.67;;;;;;;;;;5093283;28;20024;-52
2020/12/28 09:58:32;;;;;;;8.77;5.40;;;;;;;;;;5091104;28;20526;-55
2020/12/28 10:00:57;;;;;;;8.73;4.93;;;;;;;;;;5094304;28;20020;-56
2020/12/28 10:03:23;;;;;;;8.13;5.63;;;;;;;;;;5088714;28;20035;-54
2020/12/28 10:05:48;;;;;;;8.13;5.17;;;;;;;;;;5085152;28;20086;-58
2020/12/28 10:08:13;;;;;;;8.37;5.63;;;;;;;;;;5091089;28;20056;-56
2020/12/28 10:10:38;;;;;;;9.67;6.00;;;;;;;;;;5091475;28;20019;-57
2020/12/28 10:13:04;;;;;;;9.97;5.83;;;;;;;;;;5086782;28;20379;-56
2020/12/28 10:15:29;;;;;;;8.93;5.60;;;;;;;;;;5092202;28;20463;-55
2020/12/28 10:18:12;;;;;;;8.70;5.60;;;;;;;;;;5093752;28;20099;-56
2020/12/28 10:20:38;;;;;;;11.57;6.33;;;;;;;;;;5092212;28;20012;-55
2020/12/28 10:23:03;;;;;;;8.37;6.80;;;;;;;;;;5088955;28;20433;-55
2020/12/28 10:25:28;;;;;;;7.93;5.70;;;;;;;;;;5093458;28;20051;-56
2020/12/28 10:27:54;;;;;;;7.40;5.33;;;;;;;;;;5093239;28;20028;-55
2020/12/28 10:30:19;;;;;;;8.30;5.77;;;;;;;;;;5090644;28;20081;-56
2020/12/28 10:32:44;;;;;;;9.47;6.80;;;;;;;;;;5093330;28;20370;-56
2020/12/28 10:35:10;;;;;;;9.27;6.43;;;;;;;;;;5092079;28;20015;-56
2020/12/28 10:37:36;;;;;;;9.57;5.97;;;;;;;;;;5093499;28;20103;-56
2020/12/28 10:40:01;;;;;;;8.73;6.33;;;;;;;;;;5090122;28;20107;-53
2020/12/28 10:42:26;;;;;;;8.43;5.67;;;;;;;;;;5093251;28;20363;-56
2020/12/28 10:44:51;;;;;;;7.50;5.80;;;;;;;;;;5086772;28;20020;-56
2020/12/28 10:47:16;;;;;;;7.47;5.67;;;;;;;;;;5089307;28;20014;-56
2020/12/28 10:49:42;;;;;;;7.23;5.10;;;;;;;;;;5088104;28;20375;-55
2020/12/28 10:52:07;;;;;;;6.47;5.23;;;;;;;;;;5073119;28;20070;-57
2020/12/28 10:54:32;;;;;;;8.53;5.37;;;;;;;;;;5088695;28;20081;-57
2020/12/28 10:56:58;;;;;;;6.93;5.33;;;;;;;;;;5087018;28;20016;-55
2020/12/28 10:59:23;;;;;;;9.07;5.93;;;;;;;;;;5079891;28;20103;-57
2020/12/28 11:01:48;;;;;;;9.93;7.20;;;;;;;;;;5081927;28;20488;-58
2020/12/28 11:04:13;;;;;;;11.23;7.07;;;;;;;;;;5091022;28;20467;-57
2020/12/28 11:06:42;;;;;;;12.07;7.47;;;;;;;;;;5090914;28;20020;-54
2020/12/28 11:09:07;;;;;;;9.40;6.53;;;;;;;;;;5088763;28;20077;-56
2020/12/28 11:11:32;;;;;;;10.17;6.43;;;;;;;;;;5092273;28;20008;-56
2020/12/28 11:13:57;;;;;;;8.83;6.73;;;;;;;;;;5091895;28;20016;-54
2020/12/28 11:16:26;;;;;;;10.93;7.03;;;;;;;;;;5091875;28;20027;-55
2020/12/28 11:18:51;;;;;;;9.90;6.43;;;;;;;;;;5088817;28;20016;-58
2020/12/28 11:21:16;;;;;;;8.50;5.70;;;;;;;;;;5091852;28;20024;-58
2020/12/28 11:26:26;;;;;;;7.47;5.00;;;;;;;;;;5077497;28;20078;-57
2020/12/28 11:28:52;;;;;;;9.33;5.60;;;;;;;;;;5087320;28;20450;-57
2020/12/28 11:31:17;;;;;;;8.57;6.18;;;;;;;;;;5091471;28;20020;-56
2020/12/28 11:33:43;;;;;;;7.63;4.90;;;;;;;;;;5092136;28;20020;-56
2020/12/28 11:36:08;;;;;;;7.82;5.03;;;;;;;;;;5091572;28;20024;-56
2020/12/28 11:38:34;;;;;;;7.00;4.95;;;;;;;;;;5087177;28;20474;-57
2020/12/28 11:40:59;;;;;;;6.70;5.22;;;;;;;;;;5088506;28;20036;-54
2020/12/28 11:43:25;;;;;;;6.70;4.90;;;;;;;;;;5092983;28;20024;-58
2020/12/28 11:45:50;;;;;;;5.97;4.45;;;;;;;;;;5089495;28;20039;-56
2020/12/28 11:48:16;;;;;;;6.57;4.07;;;;;;;;;;5091057;28;20023;-57
2020/12/28 11:50:41;;;;;;;5.70;4.05;;;;;;;;;;5091043;28;20004;-57
2020/12/28 11:53:06;;;;;;;7.22;4.95;;;;;;;;;;5091254;28;20438;-56
2020/12/28 11:56:01;;;;;;;5.80;4.07;;;;;;;;;;5080254;28;20108;-55
2020/12/28 11:58:16;;;;;;;5.90;3.85;;;;;;;;;;5075591;28;20529;-57
2020/12/28 12:00:41;;;;;;;6.25;5.00;;;;;;;;;;5079791;28;20032;-57
2020/12/28 12:03:07;;;;;;;6.18;3.60;;;;;;;;;;5089683;28;20077;-56
2020/12/28 12:05:34;;;;;;;6.13;5.30;;;;;;;;;;5091925;28;20099;-57
2020/12/28 12:07:59;;;;;;;6.22;4.57;;;;;;;;;;5091668;28;20028;-56
2020/12/28 12:10:24;;;;;;;5.80;4.78;;;;;;;;;;5088157;28;20135;-57
2020/12/28 12:12:49;;;;;;;5.15;4.45;;;;;;;;;;5091888;28;20042;-56
2020/12/28 12:15:15;;;;;;;6.05;4.70;;;;;;;;;;5091520;28;20475;-57
2020/12/28 12:17:40;;;;;;;5.63;4.35;;;;;;;;;;5091278;28;20434;-57
2020/12/28 12:20:05;;;;;;;5.10;4.38;;;;;;;;;;5088338;28;20560;-57
2020/12/28 12:22:30;;;;;;;6.40;4.43;;;;;;;;;;5091972;28;20023;-55
2020/12/28 12:24:55;;;;;;;6.70;4.72;;;;;;;;;;5086383;28;20046;-57
2020/12/28 12:27:21;;;;;;;5.35;4.18;;;;;;;;;;5091283;28;20014;-57
2020/12/28 12:29:46;;;;;;;4.97;4.22;;;;;;;;;;5088542;28;20489;-58
2020/12/28 12:32:11;;;;;;;6.13;4.40;;;;;;;;;;5085693;28;20016;-58
2020/12/28 12:34:36;;;;;;;5.40;4.45;;;;;;;;;;5091239;28;20023;-56
2020/12/28 12:37:02;;;;;;;5.93;3.95;;;;;;;;;;5091228;28;20012;-55
2020/12/28 12:39:27;;;;;;;6.95;5.20;;;;;;;;;;5088613;28;20025;-59
2020/12/28 12:41:52;;;;;;;5.50;4.30;;;;;;;;;;5087542;28;20071;-55
2020/12/28 12:44:17;;;;;;;6.43;4.82;;;;;;;;;;5089358;28;20073;-55
2020/12/28 12:46:42;;;;;;;7.57;5.45;;;;;;;;;;5091567;28;20016;-54
2020/12/28 12:49:08;;;;;;;6.55;4.65;;;;;;;;;;5088134;28;20082;-57
2020/12/28 12:51:35;;;;;;;6.32;4.63;;;;;;;;;;5091429;28;20008;-58
2020/12/28 12:54:00;;;;;;;6.32;4.90;;;;;;;;;;5090578;28;20047;-56
2020/12/28 12:56:25;;;;;;;6.80;5.10;;;;;;;;;;5091486;28;20055;-57
2020/12/28 12:58:50;;;;;;;4.90;3.72;;;;;;;;;;5071693;28;20016;-56
2020/12/28 13:01:16;;;;;;;6.25;4.10;;;;;;;;;;5090742;28;20520;-56
2020/12/28 13:03:41;;;;;;;5.47;4.50;;;;;;;;;;5091651;28;20020;-56
2020/12/28 13:06:07;;;;;;;6.50;4.63;;;;;;;;;;5091651;28;20545;-56
2020/12/28 13:08:32;;;;;;;6.70;4.78;;;;;;;;;;5091253;28;20084;-57
2020/12/28 13:10:58;;;;;;;7.60;5.78;;;;;;;;;;5094602;28;20009;-55
2020/12/28 13:13:23;;;;;;;7.80;5.28;;;;;;;;;;5094088;28;20100;-55
2020/12/28 13:15:48;;;;;;;8.57;6.22;;;;;;;;;;5094646;28;20016;-57
2020/12/28 13:18:13;;;;;;;10.40;6.63;;;;;;;;;;5084159;28;20096;-56
2020/12/28 13:20:38;;;;;;;7.30;6.50;;;;;;;;;;5083116;28;20367;-54
2020/12/28 13:23:05;;;;;;;8.70;5.67;;;;;;;;;;5094022;28;20024;-58
2020/12/28 13:25:30;;;;;;;7.40;6.03;;;;;;;;;;5093008;28;20160;-57
2020/12/28 13:27:55;;;;;;;7.80;5.07;;;;;;;;;;5094023;28;20429;-56
2020/12/28 13:30:21;;;;;;;9.27;5.40;;;;;;;;;;5091822;28;20410;-54
2020/12/28 13:32:46;;;;;;;7.30;5.43;;;;;;;;;;5093728;28;20048;-57
2020/12/28 13:35:12;;;;;;;7.93;5.60;;;;;;;;;;5094587;28;20030;-57
2020/12/28 13:37:38;;;;;;;6.47;5.33;;;;;;;;;;5095050;28;20061;-54
2020/12/28 13:40:03;;;;;;;8.00;6.40;;;;;;;;;;5091839;28;20024;-54
2020/12/28 13:42:29;;;;;;;8.37;6.10;;;;;;;;;;5093258;28;20443;-53
2020/12/28 13:44:54;;;;;;;7.63;5.60;;;;;;;;;;5095198;28;20069;-56
2020/12/28 13:47:19;;;;;;;7.93;5.70;;;;;;;;;;5092457;28;20065;-56
2020/12/28 13:49:44;;;;;;;9.13;6.57;;;;;;;;;;5088300;28;20024;-57
2020/12/28 13:52:10;;;;;;;7.70;6.30;;;;;;;;;;5089757;28;20026;-56
2020/12/28 13:54:35;;;;;;;8.40;6.20;;;;;;;;;;5094806;28;20012;-56
2020/12/28 13:57:01;;;;;;;8.13;5.60;;;;;;;;;;5093956;28;20020;-56
2020/12/28 13:59:26;;;;;;;8.70;6.57;;;;;;;;;;5091597;28;20053;-55
2020/12/28 14:01:52;;;;;;;8.80;6.10;;;;;;;;;;5094416;28;20012;-56
2020/12/28 14:04:17;;;;;;;7.93;5.93;;;;;;;;;;5094466;28;20016;-56
2020/12/28 14:06:42;;;;;;;8.00;6.00;;;;;;;;;;5094629;28;20390;-57
2020/12/28 14:09:07;;;;;;;8.27;5.83;;;;;;;;;;5090712;28;20474;-56
2020/12/28 14:11:33;;;;;;;8.50;6.20;;;;;;;;;;5094217;28;20353;-54
2020/12/28 14:13:58;;;;;;;7.90;5.60;;;;;;;;;;5094202;28;20099;-55
2020/12/28 14:16:24;;;;;;;9.47;6.50;;;;;;;;;;5089603;28;20044;-56
2020/12/28 14:18:49;;;;;;;8.57;6.43;;;;;;;;;;5082445;28;20032;-58
2020/12/28 14:21:15;;;;;;;7.93;6.37;;;;;;;;;;5088133;28;20027;-56
2020/12/28 14:23:42;;;;;;;9.03;6.27;;;;;;;;;;5093268;28;20058;-57
2020/12/28 14:26:11;;;;;;;7.80;5.97;;;;;;;;;;5092330;28;20028;-55
2020/12/28 14:28:37;;;;;;;9.80;7.90;;;;;;;;;;5089170;28;20418;-56
2020/12/28 14:31:02;;;;;;;10.00;6.93;;;;;;;;;;5094640;28;20013;-58
2020/12/28 14:33:28;;;;;;;9.80;7.77;;;;;;;;;;5093390;28;20096;-58
2020/12/28 14:35:55;;;;;;;9.97;7.30;;;;;;;;;;5092431;28;20437;-56
2020/12/28 14:38:20;;;;;;;8.27;6.10;;;;;;;;;;5081731;28;20115;-56